This is the latest recevied weather packets stored in our database for station/object SQ9SMC-13. If no packets are shown the sender has not sent any weather packets the latest 10 day(s).
| Time | Temp. | Humidity | Pressure | Rain* | Wind** | Luminosity | Snow |
|---|---|---|---|---|---|---|---|
| 1777791003 | 17.78° C | 46% | 1020.7 hPa | 0 mm | - | 323 W/m² | - |
| 1777790703 | 17.78° C | 46% | 1020.8 hPa | 0 mm | - | 310 W/m² | - |
| 1777790404 | 17.22° C | 46% | 1020.8 hPa | 0 mm | - | 296 W/m² | - |
| 1777790104 | 17.22° C | 46% | 1020.6 hPa | 0 mm | - | 286 W/m² | - |
| 1777789803 | 17.22° C | 47% | 1020.6 hPa | 0 mm | - | 272 W/m² | - |
| 1777789505 | 17.22° C | 47% | 1020.5 hPa | 0 mm | - | 260 W/m² | - |
| 1777789203 | 16.67° C | 47% | 1020.6 hPa | 0 mm | - | 248 W/m² | - |
| 1777788904 | 16.67° C | 47% | 1020.6 hPa | 0 mm | - | 237 W/m² | - |
| 1777788603 | 16.67° C | 47% | 1020.4 hPa | 0 mm | - | 226 W/m² | - |
| 1777788304 | 16.11° C | 48% | 1020.5 hPa | 0 mm | - | 215 W/m² | - |
| 1777788003 | 16.11° C | 48% | 1020.6 hPa | 0 mm | - | 202 W/m² | - |
| 1777787703 | 16.11° C | 48% | 1020.6 hPa | 0 mm | - | 192 W/m² | - |
| 1777787403 | 16.11° C | 49% | 1020.7 hPa | 0 mm | - | 179 W/m² | - |
| 1777787104 | 15.56° C | 49% | 1020.7 hPa | 0 mm | - | 168 W/m² | - |
| 1777786802 | 15.56° C | 49% | 1020.8 hPa | 0 mm | - | 158 W/m² | - |
| 1777786505 | 15° C | 51% | 1020.6 hPa | 0 mm | - | 148 W/m² | - |
| 1777786203 | 15° C | 51% | 1020.7 hPa | 0 mm | - | 138 W/m² | - |
| 1777785904 | 14.44° C | 52% | 1020.7 hPa | 0 mm | - | 127 W/m² | - |
| 1777785605 | 13.89° C | 59% | 1020.7 hPa | 0 mm | - | 118 W/m² | - |
| 1777785303 | 12.78° C | 67% | 1020.7 hPa | 0 mm | - | 107 W/m² | - |
| 1777785004 | 12.22° C | 61% | 1020.7 hPa | 0 mm | - | 92 W/m² | - |
| 1777784702 | 11.11° C | 67% | 1020.7 hPa | 0 mm | - | 81 W/m² | - |
| 1777784407 | 10° C | 75% | 1020.9 hPa | 0 mm | - | 66 W/m² | - |
| 1777784103 | 10.56° C | 72% | 1020.7 hPa | 0 mm | - | 49 W/m² | - |
| 1777783803 | 10° C | 74% | 1020.7 hPa | 0 mm | - | 43 W/m² | - |
* Rain latest hour (hover to see other rain measurements)
** Current wind speed in m/s (hover to see current wind gust speed)